CheckWX is a tool to help pilots better visualize weather data.  It is not intended as a substitute for an official pre-flight weather briefing.

21:19:33 UTC

KMFR TAF
Rogue Valley International - Medford Airport
Medford, Oregon, USA
KMFR 032348Z 0400/0424 30010G18KT P6SM FEW080 BKN180 FM040400 VRB03KT P6SM SKC FM042100 32008KT P6SM SKC

Jun-4@
00:00 UTC

Jun-4 @ 00:00 UTC

Jun-4@
04:00 UTC

Jun-4 @ 04:00 UTC

TAF KMFR 032348Z 0400/0424 30010G18KT P6SM FEW080 BKN180

Expired

Wind
  • 300° at 10 KTS
  • {Gusting to 18 KTS
Cloud Levels
  • Few at 8,000' AGL
  • Broken at 18,000' AGL

Jun-4@
04:00 UTC

Jun-4 @ 04:00 UTC

Jun-4@
21:00 UTC

Jun-4 @ 21:00 UTC

FM040400 VRB03KT P6SM SKC

Expired

Wind
  • Variable at 3 KTS
Cloud Levels
  • Clear skies

Jun-4@
21:00 UTC

Jun-4 @ 21:00 UTC

Jun-5@
00:00 UTC

Jun-5 @ 00:00 UTC

FM042100 32008KT P6SM SKC

From

From Standard forecast or significant change

Wind
  • 320° at 8 KTS
Cloud Levels
  • Clear skies